sensor_id;sensor_type;location;lat;lon;timestamp;P1;durP1;ratioP1;P2;durP2;ratioP2
11113;SDS011;5610;52.154;9.198;2022-07-06T00:01:34;2.20;;;1.80;;
11113;SDS011;5610;52.154;9.198;2022-07-06T00:04:19;2.90;;;1.60;;
11113;SDS011;5610;52.154;9.198;2022-07-06T00:07:04;3.73;;;1.63;;
11113;SDS011;5610;52.154;9.198;2022-07-06T00:09:50;2.20;;;1.27;;
11113;SDS011;5610;52.154;9.198;2022-07-06T00:12:35;4.33;;;1.40;;
11113;SDS011;5610;52.154;9.198;2022-07-06T00:15:22;2.60;;;1.53;;
11113;SDS011;5610;52.154;9.198;2022-07-06T00:18:07;3.83;;;1.40;;
11113;SDS011;5610;52.154;9.198;2022-07-06T00:20:53;3.80;;;2.00;;
11113;SDS011;5610;52.154;9.198;2022-07-06T00:23:38;5.90;;;1.60;;
11113;SDS011;5610;52.154;9.198;2022-07-06T00:26:23;5.10;;;1.40;;
11113;SDS011;5610;52.154;9.198;2022-07-06T00:29:09;3.93;;;1.73;;
11113;SDS011;5610;52.154;9.198;2022-07-06T00:31:56;1.73;;;1.60;;
11113;SDS011;5610;52.154;9.198;2022-07-06T00:34:41;3.03;;;1.30;;
11113;SDS011;5610;52.154;9.198;2022-07-06T00:37:28;4.97;;;1.60;;
11113;SDS011;5610;52.154;9.198;2022-07-06T00:40:13;2.57;;;1.60;;
11113;SDS011;5610;52.154;9.198;2022-07-06T00:42:58;1.60;;;1.20;;
11113;SDS011;5610;52.154;9.198;2022-07-06T00:45:44;2.60;;;1.40;;
11113;SDS011;5610;52.154;9.198;2022-07-06T00:48:30;3.10;;;1.30;;
11113;SDS011;5610;52.154;9.198;2022-07-06T00:51:16;2.53;;;1.50;;
11113;SDS011;5610;52.154;9.198;2022-07-06T00:54:03;6.63;;;1.60;;
11113;SDS011;5610;52.154;9.198;2022-07-06T00:56:49;1.53;;;1.20;;
11113;SDS011;5610;52.154;9.198;2022-07-06T00:59:35;4.93;;;1.50;;
11113;SDS011;5610;52.154;9.198;2022-07-06T01:02:20;1.90;;;1.50;;
11113;SDS011;5610;52.154;9.198;2022-07-06T01:05:09;2.43;;;1.50;;
11113;SDS011;5610;52.154;9.198;2022-07-06T01:07:55;2.70;;;1.50;;
11113;SDS011;5610;52.154;9.198;2022-07-06T01:10:41;3.30;;;1.40;;
11113;SDS011;5610;52.154;9.198;2022-07-06T01:13:26;4.60;;;1.60;;
11113;SDS011;5610;52.154;9.198;2022-07-06T01:16:13;4.10;;;1.60;;
11113;SDS011;5610;52.154;9.198;2022-07-06T01:18:58;4.03;;;1.30;;
11113;SDS011;5610;52.154;9.198;2022-07-06T01:21:45;2.40;;;1.67;;
11113;SDS011;5610;52.154;9.198;2022-07-06T01:24:31;4.13;;;1.60;;
11113;SDS011;5610;52.154;9.198;2022-07-06T01:27:17;2.40;;;1.37;;
11113;SDS011;5610;52.154;9.198;2022-07-06T01:30:03;2.87;;;1.57;;
11113;SDS011;5610;52.154;9.198;2022-07-06T01:32:50;8.33;;;2.13;;
11113;SDS011;5610;52.154;9.198;2022-07-06T01:35:35;2.10;;;1.80;;
11113;SDS011;5610;52.154;9.198;2022-07-06T01:38:24;2.90;;;1.60;;
11113;SDS011;5610;52.154;9.198;2022-07-06T01:41:09;4.50;;;1.80;;
11113;SDS011;5610;52.154;9.198;2022-07-06T01:43:55;3.43;;;1.27;;
11113;SDS011;5610;52.154;9.198;2022-07-06T01:46:40;4.53;;;1.80;;
11113;SDS011;5610;52.154;9.198;2022-07-06T01:49:27;2.43;;;1.50;;
11113;SDS011;5610;52.154;9.198;2022-07-06T01:52:12;2.97;;;1.27;;
11113;SDS011;5610;52.154;9.198;2022-07-06T01:54:59;4.73;;;1.90;;
11113;SDS011;5610;52.154;9.198;2022-07-06T01:57:45;1.87;;;1.50;;
11113;SDS011;5610;52.154;9.198;2022-07-06T02:00:31;4.70;;;1.87;;
11113;SDS011;5610;52.154;9.198;2022-07-06T02:03:16;1.80;;;1.70;;
11113;SDS011;5610;52.154;9.198;2022-07-06T02:06:02;2.27;;;1.70;;
11113;SDS011;5610;52.154;9.198;2022-07-06T02:08:47;3.33;;;1.40;;
11113;SDS011;5610;52.154;9.198;2022-07-06T02:11:36;1.40;;;1.30;;
11113;SDS011;5610;52.154;9.198;2022-07-06T02:14:22;2.60;;;1.60;;
11113;SDS011;5610;52.154;9.198;2022-07-06T02:17:07;3.03;;;1.40;;
11113;SDS011;5610;52.154;9.198;2022-07-06T02:19:52;4.60;;;1.60;;
11113;SDS011;5610;52.154;9.198;2022-07-06T02:22:38;3.60;;;1.53;;
11113;SDS011;5610;52.154;9.198;2022-07-06T02:25:24;3.60;;;2.07;;
11113;SDS011;5610;52.154;9.198;2022-07-06T02:28:11;2.57;;;1.63;;
11113;SDS011;5610;52.154;9.198;2022-07-06T02:30:57;4.20;;;1.40;;
11113;SDS011;5610;52.154;9.198;2022-07-06T02:33:44;3.67;;;1.57;;
11113;SDS011;5610;52.154;9.198;2022-07-06T02:36:31;1.50;;;1.40;;
11113;SDS011;5610;52.154;9.198;2022-07-06T02:39:17;5.97;;;2.10;;
11113;SDS011;5610;52.154;9.198;2022-07-06T02:42:03;3.07;;;1.57;;
11113;SDS011;5610;52.154;9.198;2022-07-06T02:44:50;4.10;;;1.53;;
11113;SDS011;5610;52.154;9.198;2022-07-06T02:47:37;1.83;;;1.63;;
11113;SDS011;5610;52.154;9.198;2022-07-06T02:50:23;7.57;;;1.80;;
11113;SDS011;5610;52.154;9.198;2022-07-06T02:53:09;4.73;;;1.80;;
11113;SDS011;5610;52.154;9.198;2022-07-06T02:55:55;4.37;;;1.77;;
11113;SDS011;5610;52.154;9.198;2022-07-06T02:58:41;1.90;;;1.50;;
11113;SDS011;5610;52.154;9.198;2022-07-06T03:01:28;4.87;;;1.80;;
11113;SDS011;5610;52.154;9.198;2022-07-06T03:04:13;3.00;;;1.80;;
11113;SDS011;5610;52.154;9.198;2022-07-06T03:07:00;8.50;;;1.80;;
11113;SDS011;5610;52.154;9.198;2022-07-06T03:09:46;2.97;;;1.63;;
11113;SDS011;5610;52.154;9.198;2022-07-06T03:12:31;3.87;;;1.60;;
11113;SDS011;5610;52.154;9.198;2022-07-06T03:15:17;6.60;;;1.90;;
11113;SDS011;5610;52.154;9.198;2022-07-06T03:18:05;2.63;;;1.63;;
11113;SDS011;5610;52.154;9.198;2022-07-06T03:20:51;3.93;;;1.30;;
11113;SDS011;5610;52.154;9.198;2022-07-06T03:23:37;3.70;;;1.70;;
11113;SDS011;5610;52.154;9.198;2022-07-06T03:26:22;9.90;;;1.90;;
11113;SDS011;5610;52.154;9.198;2022-07-06T03:29:08;6.97;;;2.20;;
11113;SDS011;5610;52.154;9.198;2022-07-06T03:31:53;4.10;;;1.67;;
11113;SDS011;5610;52.154;9.198;2022-07-06T03:34:40;3.53;;;2.20;;
11113;SDS011;5610;52.154;9.198;2022-07-06T03:37:26;4.47;;;1.97;;
11113;SDS011;5610;52.154;9.198;2022-07-06T03:40:11;4.77;;;1.40;;
11113;SDS011;5610;52.154;9.198;2022-07-06T03:42:57;3.43;;;1.53;;
11113;SDS011;5610;52.154;9.198;2022-07-06T03:45:44;5.70;;;1.83;;
11113;SDS011;5610;52.154;9.198;2022-07-06T03:48:30;4.47;;;1.80;;
11113;SDS011;5610;52.154;9.198;2022-07-06T03:51:17;4.33;;;1.30;;
11113;SDS011;5610;52.154;9.198;2022-07-06T03:54:03;3.10;;;1.30;;
11113;SDS011;5610;52.154;9.198;2022-07-06T03:56:48;4.97;;;1.50;;
11113;SDS011;5610;52.154;9.198;2022-07-06T03:59:34;4.47;;;1.57;;
11113;SDS011;5610;52.154;9.198;2022-07-06T04:02:19;4.57;;;2.00;;
11113;SDS011;5610;52.154;9.198;2022-07-06T04:05:07;5.07;;;2.17;;
11113;SDS011;5610;52.154;9.198;2022-07-06T04:07:55;3.20;;;1.50;;
11113;SDS011;5610;52.154;9.198;2022-07-06T04:10:48;4.50;;;1.60;;
11113;SDS011;5610;52.154;9.198;2022-07-06T04:13:33;3.77;;;1.60;;
11113;SDS011;5610;52.154;9.198;2022-07-06T04:16:20;3.80;;;1.73;;
11113;SDS011;5610;52.154;9.198;2022-07-06T04:19:05;4.93;;;1.47;;
11113;SDS011;5610;52.154;9.198;2022-07-06T04:21:52;3.80;;;1.50;;
11113;SDS011;5610;52.154;9.198;2022-07-06T04:24:40;2.93;;;1.70;;
11113;SDS011;5610;52.154;9.198;2022-07-06T04:27:25;4.13;;;1.47;;
11113;SDS011;5610;52.154;9.198;2022-07-06T04:30:11;5.97;;;2.27;;
11113;SDS011;5610;52.154;9.198;2022-07-06T04:32:58;2.97;;;1.40;;
11113;SDS011;5610;52.154;9.198;2022-07-06T04:35:46;2.57;;;1.57;;
11113;SDS011;5610;52.154;9.198;2022-07-06T04:38:31;5.00;;;1.60;;
11113;SDS011;5610;52.154;9.198;2022-07-06T04:41:22;4.40;;;2.43;;
11113;SDS011;5610;52.154;9.198;2022-07-06T04:44:09;5.40;;;1.60;;
11113;SDS011;5610;52.154;9.198;2022-07-06T04:46:55;2.90;;;1.70;;
11113;SDS011;5610;52.154;9.198;2022-07-06T04:49:40;2.90;;;2.07;;
11113;SDS011;5610;52.154;9.198;2022-07-06T04:52:26;3.47;;;2.00;;
11113;SDS011;5610;52.154;9.198;2022-07-06T04:55:12;2.13;;;1.63;;
11113;SDS011;5610;52.154;9.198;2022-07-06T04:57:59;4.93;;;2.10;;
11113;SDS011;5610;52.154;9.198;2022-07-06T05:00:45;6.30;;;1.70;;
11113;SDS011;5610;52.154;9.198;2022-07-06T05:03:30;5.40;;;1.83;;
11113;SDS011;5610;52.154;9.198;2022-07-06T05:06:15;2.43;;;1.70;;
11113;SDS011;5610;52.154;9.198;2022-07-06T05:09:02;7.10;;;1.47;;
11113;SDS011;5610;52.154;9.198;2022-07-06T05:11:49;4.10;;;1.70;;
11113;SDS011;5610;52.154;9.198;2022-07-06T05:14:37;4.33;;;1.40;;
11113;SDS011;5610;52.154;9.198;2022-07-06T05:17:25;2.93;;;1.43;;
11113;SDS011;5610;52.154;9.198;2022-07-06T05:20:10;2.70;;;1.47;;
11113;SDS011;5610;52.154;9.198;2022-07-06T05:22:59;4.00;;;1.50;;
11113;SDS011;5610;52.154;9.198;2022-07-06T05:25:47;3.17;;;1.83;;
11113;SDS011;5610;52.154;9.198;2022-07-06T05:28:33;3.17;;;1.50;;
11113;SDS011;5610;52.154;9.198;2022-07-06T05:31:20;5.40;;;1.93;;
11113;SDS011;5610;52.154;9.198;2022-07-06T05:34:06;4.23;;;1.60;;
11113;SDS011;5610;52.154;9.198;2022-07-06T05:36:51;3.57;;;1.57;;
11113;SDS011;5610;52.154;9.198;2022-07-06T05:39:36;2.80;;;1.90;;
11113;SDS011;5610;52.154;9.198;2022-07-06T05:42:22;5.50;;;2.03;;
11113;SDS011;5610;52.154;9.198;2022-07-06T05:45:08;4.17;;;2.03;;
11113;SDS011;5610;52.154;9.198;2022-07-06T05:47:56;4.37;;;1.87;;
11113;SDS011;5610;52.154;9.198;2022-07-06T05:50:59;4.50;;;1.87;;
11113;SDS011;5610;52.154;9.198;2022-07-06T05:53:45;4.37;;;1.80;;
11113;SDS011;5610;52.154;9.198;2022-07-06T05:56:32;4.33;;;1.80;;
11113;SDS011;5610;52.154;9.198;2022-07-06T05:59:18;3.90;;;1.50;;
11113;SDS011;5610;52.154;9.198;2022-07-06T06:02:04;3.90;;;2.30;;
11113;SDS011;5610;52.154;9.198;2022-07-06T06:04:51;3.53;;;1.27;;
11113;SDS011;5610;52.154;9.198;2022-07-06T06:07:37;5.77;;;1.67;;
11113;SDS011;5610;52.154;9.198;2022-07-06T06:10:23;3.77;;;1.63;;
11113;SDS011;5610;52.154;9.198;2022-07-06T06:13:12;3.60;;;2.20;;
11113;SDS011;5610;52.154;9.198;2022-07-06T06:15:57;4.20;;;1.70;;
11113;SDS011;5610;52.154;9.198;2022-07-06T06:18:43;3.57;;;1.70;;
11113;SDS011;5610;52.154;9.198;2022-07-06T06:21:29;4.53;;;1.70;;
11113;SDS011;5610;52.154;9.198;2022-07-06T06:24:15;6.80;;;1.40;;
11113;SDS011;5610;52.154;9.198;2022-07-06T06:27:00;2.07;;;1.20;;
11113;SDS011;5610;52.154;9.198;2022-07-06T06:29:46;2.13;;;1.53;;
11113;SDS011;5610;52.154;9.198;2022-07-06T06:32:30;6.47;;;1.63;;
11113;SDS011;5610;52.154;9.198;2022-07-06T06:35:16;3.60;;;1.67;;
11113;SDS011;5610;52.154;9.198;2022-07-06T06:38:02;4.10;;;1.60;;
11113;SDS011;5610;52.154;9.198;2022-07-06T06:40:48;5.50;;;1.47;;
11113;SDS011;5610;52.154;9.198;2022-07-06T06:43:33;3.30;;;1.70;;
11113;SDS011;5610;52.154;9.198;2022-07-06T06:46:28;3.13;;;1.53;;
11113;SDS011;5610;52.154;9.198;2022-07-06T06:49:13;3.90;;;1.50;;
11113;SDS011;5610;52.154;9.198;2022-07-06T06:51:59;3.40;;;1.43;;
11113;SDS011;5610;52.154;9.198;2022-07-06T06:54:45;3.00;;;1.20;;
11113;SDS011;5610;52.154;9.198;2022-07-06T06:57:31;4.33;;;1.30;;
11113;SDS011;5610;52.154;9.198;2022-07-06T07:00:17;2.63;;;1.30;;
11113;SDS011;5610;52.154;9.198;2022-07-06T07:03:03;2.70;;;1.30;;
11113;SDS011;5610;52.154;9.198;2022-07-06T07:05:48;3.50;;;1.10;;
11113;SDS011;5610;52.154;9.198;2022-07-06T07:08:33;2.03;;;1.00;;
11113;SDS011;5610;52.154;9.198;2022-07-06T07:11:20;3.00;;;1.37;;
11113;SDS011;5610;52.154;9.198;2022-07-06T07:14:06;4.30;;;1.03;;
11113;SDS011;5610;52.154;9.198;2022-07-06T07:16:51;3.10;;;1.23;;
11113;SDS011;5610;52.154;9.198;2022-07-06T07:19:36;2.67;;;1.37;;
11113;SDS011;5610;52.154;9.198;2022-07-06T07:22:22;5.43;;;1.70;;
11113;SDS011;5610;52.154;9.198;2022-07-06T07:25:08;3.27;;;1.27;;
11113;SDS011;5610;52.154;9.198;2022-07-06T07:27:55;3.43;;;1.27;;
11113;SDS011;5610;52.154;9.198;2022-07-06T07:30:40;4.40;;;1.20;;
11113;SDS011;5610;52.154;9.198;2022-07-06T07:33:25;2.17;;;1.40;;
11113;SDS011;5610;52.154;9.198;2022-07-06T07:36:11;3.83;;;1.70;;
11113;SDS011;5610;52.154;9.198;2022-07-06T07:38:56;2.43;;;1.03;;
11113;SDS011;5610;52.154;9.198;2022-07-06T07:41:41;3.00;;;1.13;;
11113;SDS011;5610;52.154;9.198;2022-07-06T07:44:28;1.90;;;1.00;;
11113;SDS011;5610;52.154;9.198;2022-07-06T07:47:13;2.20;;;1.23;;
11113;SDS011;5610;52.154;9.198;2022-07-06T07:49:58;4.80;;;1.00;;
11113;SDS011;5610;52.154;9.198;2022-07-06T07:52:44;6.40;;;1.03;;
11113;SDS011;5610;52.154;9.198;2022-07-06T07:55:29;3.00;;;1.00;;
11113;SDS011;5610;52.154;9.198;2022-07-06T07:58:14;3.20;;;1.20;;
11113;SDS011;5610;52.154;9.198;2022-07-06T08:01:01;7.10;;;1.17;;
11113;SDS011;5610;52.154;9.198;2022-07-06T08:03:48;2.53;;;1.00;;
11113;SDS011;5610;52.154;9.198;2022-07-06T08:06:33;4.50;;;1.30;;
11113;SDS011;5610;52.154;9.198;2022-07-06T08:09:19;2.87;;;1.30;;
11113;SDS011;5610;52.154;9.198;2022-07-06T08:12:04;2.80;;;1.40;;
11113;SDS011;5610;52.154;9.198;2022-07-06T08:14:50;3.00;;;1.10;;
11113;SDS011;5610;52.154;9.198;2022-07-06T08:17:37;2.33;;;1.03;;
11113;SDS011;5610;52.154;9.198;2022-07-06T08:20:23;2.20;;;0.70;;
11113;SDS011;5610;52.154;9.198;2022-07-06T08:23:08;4.00;;;0.87;;
11113;SDS011;5610;52.154;9.198;2022-07-06T08:25:53;2.50;;;0.90;;
11113;SDS011;5610;52.154;9.198;2022-07-06T08:28:38;4.73;;;1.17;;
11113;SDS011;5610;52.154;9.198;2022-07-06T08:31:24;3.77;;;1.60;;
11113;SDS011;5610;52.154;9.198;2022-07-06T08:34:12;2.43;;;1.03;;
11113;SDS011;5610;52.154;9.198;2022-07-06T08:36:57;5.57;;;1.10;;
11113;SDS011;5610;52.154;9.198;2022-07-06T08:39:42;2.83;;;0.97;;
11113;SDS011;5610;52.154;9.198;2022-07-06T08:42:29;3.87;;;1.17;;
11113;SDS011;5610;52.154;9.198;2022-07-06T08:45:16;4.57;;;0.87;;
11113;SDS011;5610;52.154;9.198;2022-07-06T08:48:03;2.60;;;1.07;;
11113;SDS011;5610;52.154;9.198;2022-07-06T08:50:51;2.43;;;0.77;;
11113;SDS011;5610;52.154;9.198;2022-07-06T08:53:37;1.80;;;0.73;;
11113;SDS011;5610;52.154;9.198;2022-07-06T08:56:24;1.97;;;0.80;;
11113;SDS011;5610;52.154;9.198;2022-07-06T08:59:09;3.47;;;1.00;;
11113;SDS011;5610;52.154;9.198;2022-07-06T09:01:55;2.13;;;0.80;;
11113;SDS011;5610;52.154;9.198;2022-07-06T09:04:41;3.33;;;1.03;;
11113;SDS011;5610;52.154;9.198;2022-07-06T09:07:29;2.00;;;1.00;;
11113;SDS011;5610;52.154;9.198;2022-07-06T09:10:15;3.03;;;1.20;;
11113;SDS011;5610;52.154;9.198;2022-07-06T09:13:03;2.53;;;1.07;;
11113;SDS011;5610;52.154;9.198;2022-07-06T09:15:49;1.63;;;0.70;;
11113;SDS011;5610;52.154;9.198;2022-07-06T09:18:35;1.30;;;0.70;;
11113;SDS011;5610;52.154;9.198;2022-07-06T09:21:24;1.67;;;1.13;;
11113;SDS011;5610;52.154;9.198;2022-07-06T09:24:12;3.53;;;1.20;;
11113;SDS011;5610;52.154;9.198;2022-07-06T09:26:58;1.63;;;1.13;;
11113;SDS011;5610;52.154;9.198;2022-07-06T09:29:44;2.97;;;1.10;;
11113;SDS011;5610;52.154;9.198;2022-07-06T09:32:30;4.80;;;1.20;;
11113;SDS011;5610;52.154;9.198;2022-07-06T09:35:19;2.33;;;0.90;;
11113;SDS011;5610;52.154;9.198;2022-07-06T09:38:07;3.17;;;1.00;;
11113;SDS011;5610;52.154;9.198;2022-07-06T09:40:54;2.53;;;1.10;;
11113;SDS011;5610;52.154;9.198;2022-07-06T09:43:40;15.93;;;1.93;;
11113;SDS011;5610;52.154;9.198;2022-07-06T09:46:25;2.50;;;0.80;;
11113;SDS011;5610;52.154;9.198;2022-07-06T09:49:11;4.10;;;0.90;;
11113;SDS011;5610;52.154;9.198;2022-07-06T09:51:57;4.47;;;1.10;;
11113;SDS011;5610;52.154;9.198;2022-07-06T09:54:43;1.40;;;0.70;;
11113;SDS011;5610;52.154;9.198;2022-07-06T09:57:34;0.90;;;0.70;;
11113;SDS011;5610;52.154;9.198;2022-07-06T10:00:19;4.90;;;0.97;;
11113;SDS011;5610;52.154;9.198;2022-07-06T10:03:05;1.60;;;0.90;;
11113;SDS011;5610;52.154;9.198;2022-07-06T10:05:51;1.20;;;0.70;;
11113;SDS011;5610;52.154;9.198;2022-07-06T10:08:38;2.17;;;0.90;;
11113;SDS011;5610;52.154;9.198;2022-07-06T10:11:24;2.20;;;0.93;;
11113;SDS011;5610;52.154;9.198;2022-07-06T10:14:11;3.50;;;1.00;;
11113;SDS011;5610;52.154;9.198;2022-07-06T10:17:00;3.30;;;1.00;;
11113;SDS011;5610;52.154;9.198;2022-07-06T10:19:47;2.40;;;0.83;;
11113;SDS011;5610;52.154;9.198;2022-07-06T10:22:35;3.63;;;0.90;;
11113;SDS011;5610;52.154;9.198;2022-07-06T10:25:23;5.00;;;1.17;;
11113;SDS011;5610;52.154;9.198;2022-07-06T10:28:10;4.77;;;1.10;;
11113;SDS011;5610;52.154;9.198;2022-07-06T10:30:59;2.67;;;1.00;;
11113;SDS011;5610;52.154;9.198;2022-07-06T10:33:45;2.63;;;0.73;;
11113;SDS011;5610;52.154;9.198;2022-07-06T10:36:36;1.30;;;1.00;;
11113;SDS011;5610;52.154;9.198;2022-07-06T10:39:32;3.07;;;1.03;;
11113;SDS011;5610;52.154;9.198;2022-07-06T10:42:39;3.30;;;1.10;;
11113;SDS011;5610;52.154;9.198;2022-07-06T10:48:38;2.23;;;0.93;;
11113;SDS011;5610;52.154;9.198;2022-07-06T10:51:24;4.77;;;0.90;;
11113;SDS011;5610;52.154;9.198;2022-07-06T10:54:11;4.00;;;1.17;;
11113;SDS011;5610;52.154;9.198;2022-07-06T10:56:57;8.60;;;0.80;;
11113;SDS011;5610;52.154;9.198;2022-07-06T11:00:01;2.73;;;0.93;;
11113;SDS011;5610;52.154;9.198;2022-07-06T11:02:48;3.40;;;1.13;;
11113;SDS011;5610;52.154;9.198;2022-07-06T11:05:41;6.47;;;0.97;;
11113;SDS011;5610;52.154;9.198;2022-07-06T11:08:46;3.90;;;0.80;;
11113;SDS011;5610;52.154;9.198;2022-07-06T11:11:40;3.47;;;1.07;;
11113;SDS011;5610;52.154;9.198;2022-07-06T11:14:29;4.00;;;1.10;;
11113;SDS011;5610;52.154;9.198;2022-07-06T11:17:20;2.33;;;0.93;;
11113;SDS011;5610;52.154;9.198;2022-07-06T11:20:08;3.43;;;1.00;;
11113;SDS011;5610;52.154;9.198;2022-07-06T11:22:56;5.60;;;1.20;;
11113;SDS011;5610;52.154;9.198;2022-07-06T11:25:42;2.87;;;0.90;;
11113;SDS011;5610;52.154;9.198;2022-07-06T11:28:27;0.90;;;0.70;;
11113;SDS011;5610;52.154;9.198;2022-07-06T11:31:12;2.43;;;0.90;;
11113;SDS011;5610;52.154;9.198;2022-07-06T11:33:59;3.10;;;0.87;;
11113;SDS011;5610;52.154;9.198;2022-07-06T11:36:44;2.50;;;0.87;;
11113;SDS011;5610;52.154;9.198;2022-07-06T11:39:32;2.67;;;0.97;;
11113;SDS011;5610;52.154;9.198;2022-07-06T11:42:19;4.87;;;1.30;;
11113;SDS011;5610;52.154;9.198;2022-07-06T11:45:05;2.03;;;0.90;;
11113;SDS011;5610;52.154;9.198;2022-07-06T11:47:51;3.50;;;0.97;;
11113;SDS011;5610;52.154;9.198;2022-07-06T11:50:36;2.87;;;0.97;;
11113;SDS011;5610;52.154;9.198;2022-07-06T11:53:21;4.90;;;0.90;;
11113;SDS011;5610;52.154;9.198;2022-07-06T11:56:08;2.70;;;1.03;;
11113;SDS011;5610;52.154;9.198;2022-07-06T11:58:54;2.53;;;0.97;;
11113;SDS011;5610;52.154;9.198;2022-07-06T12:01:40;2.67;;;1.20;;
11113;SDS011;5610;52.154;9.198;2022-07-06T12:04:28;3.03;;;1.03;;
11113;SDS011;5610;52.154;9.198;2022-07-06T12:07:14;4.63;;;1.23;;
11113;SDS011;5610;52.154;9.198;2022-07-06T12:10:00;4.50;;;1.20;;
11113;SDS011;5610;52.154;9.198;2022-07-06T12:12:47;2.70;;;1.27;;
11113;SDS011;5610;52.154;9.198;2022-07-06T12:15:32;7.37;;;1.23;;
11113;SDS011;5610;52.154;9.198;2022-07-06T12:18:18;4.00;;;1.00;;
11113;SDS011;5610;52.154;9.198;2022-07-06T12:21:03;2.60;;;1.30;;
11113;SDS011;5610;52.154;9.198;2022-07-06T12:23:49;3.27;;;1.10;;
11113;SDS011;5610;52.154;9.198;2022-07-06T12:26:38;1.87;;;1.00;;
11113;SDS011;5610;52.154;9.198;2022-07-06T12:29:26;2.40;;;0.90;;
11113;SDS011;5610;52.154;9.198;2022-07-06T12:32:14;1.87;;;1.17;;
11113;SDS011;5610;52.154;9.198;2022-07-06T12:35:04;2.90;;;1.13;;
11113;SDS011;5610;52.154;9.198;2022-07-06T12:37:56;3.00;;;1.10;;
11113;SDS011;5610;52.154;9.198;2022-07-06T12:40:42;2.60;;;0.90;;
11113;SDS011;5610;52.154;9.198;2022-07-06T12:43:36;5.20;;;1.37;;
11113;SDS011;5610;52.154;9.198;2022-07-06T12:46:26;5.53;;;1.10;;
11113;SDS011;5610;52.154;9.198;2022-07-06T12:49:15;2.43;;;0.80;;
11113;SDS011;5610;52.154;9.198;2022-07-06T12:52:02;1.73;;;0.90;;
11113;SDS011;5610;52.154;9.198;2022-07-06T12:54:54;2.33;;;0.90;;
11113;SDS011;5610;52.154;9.198;2022-07-06T12:57:43;1.90;;;0.83;;
11113;SDS011;5610;52.154;9.198;2022-07-06T13:00:29;1.37;;;0.60;;
11113;SDS011;5610;52.154;9.198;2022-07-06T13:03:38;3.40;;;0.70;;
11113;SDS011;5610;52.154;9.198;2022-07-06T13:06:30;2.60;;;0.80;;
11113;SDS011;5610;52.154;9.198;2022-07-06T13:09:16;3.70;;;1.10;;
11113;SDS011;5610;52.154;9.198;2022-07-06T13:12:02;2.27;;;0.87;;
11113;SDS011;5610;52.154;9.198;2022-07-06T13:14:48;1.83;;;0.80;;
11113;SDS011;5610;52.154;9.198;2022-07-06T13:17:33;4.50;;;1.10;;
11113;SDS011;5610;52.154;9.198;2022-07-06T13:20:22;3.50;;;1.20;;
11113;SDS011;5610;52.154;9.198;2022-07-06T13:23:07;3.00;;;1.03;;
11113;SDS011;5610;52.154;9.198;2022-07-06T13:25:53;3.17;;;1.00;;
11113;SDS011;5610;52.154;9.198;2022-07-06T13:28:38;3.23;;;1.13;;
11113;SDS011;5610;52.154;9.198;2022-07-06T13:31:23;2.37;;;0.83;;
11113;SDS011;5610;52.154;9.198;2022-07-06T13:34:09;1.50;;;0.83;;
11113;SDS011;5610;52.154;9.198;2022-07-06T13:36:56;1.80;;;0.83;;
11113;SDS011;5610;52.154;9.198;2022-07-06T13:39:41;1.50;;;0.70;;
11113;SDS011;5610;52.154;9.198;2022-07-06T13:42:26;2.10;;;1.10;;
11113;SDS011;5610;52.154;9.198;2022-07-06T13:45:13;4.20;;;0.93;;
11113;SDS011;5610;52.154;9.198;2022-07-06T13:47:58;2.83;;;0.80;;
11113;SDS011;5610;52.154;9.198;2022-07-06T13:50:43;4.97;;;1.20;;
11113;SDS011;5610;52.154;9.198;2022-07-06T13:53:30;2.50;;;0.90;;
11113;SDS011;5610;52.154;9.198;2022-07-06T13:56:16;6.80;;;1.20;;
11113;SDS011;5610;52.154;9.198;2022-07-06T13:59:02;1.70;;;1.00;;
11113;SDS011;5610;52.154;9.198;2022-07-06T14:01:47;1.80;;;0.80;;
11113;SDS011;5610;52.154;9.198;2022-07-06T14:04:32;4.47;;;1.00;;
11113;SDS011;5610;52.154;9.198;2022-07-06T14:07:17;1.67;;;0.90;;
11113;SDS011;5610;52.154;9.198;2022-07-06T14:10:05;1.70;;;0.80;;
11113;SDS011;5610;52.154;9.198;2022-07-06T14:12:50;2.97;;;0.90;;
11113;SDS011;5610;52.154;9.198;2022-07-06T14:15:36;2.93;;;1.03;;
11113;SDS011;5610;52.154;9.198;2022-07-06T14:18:21;1.47;;;0.90;;
11113;SDS011;5610;52.154;9.198;2022-07-06T14:21:06;4.10;;;0.90;;
11113;SDS011;5610;52.154;9.198;2022-07-06T14:23:52;3.17;;;1.13;;
11113;SDS011;5610;52.154;9.198;2022-07-06T14:26:38;4.17;;;1.50;;
11113;SDS011;5610;52.154;9.198;2022-07-06T14:29:24;1.90;;;0.80;;
11113;SDS011;5610;52.154;9.198;2022-07-06T14:32:09;2.57;;;0.77;;
11113;SDS011;5610;52.154;9.198;2022-07-06T14:34:55;2.40;;;0.70;;
11113;SDS011;5610;52.154;9.198;2022-07-06T14:37:40;1.33;;;0.60;;
11113;SDS011;5610;52.154;9.198;2022-07-06T14:40:26;1.47;;;1.00;;
11113;SDS011;5610;52.154;9.198;2022-07-06T14:43:12;1.53;;;0.80;;
11113;SDS011;5610;52.154;9.198;2022-07-06T14:45:58;2.13;;;1.00;;
11113;SDS011;5610;52.154;9.198;2022-07-06T14:48:43;4.23;;;0.67;;
11113;SDS011;5610;52.154;9.198;2022-07-06T14:51:28;2.50;;;0.90;;
11113;SDS011;5610;52.154;9.198;2022-07-06T14:54:14;3.20;;;0.83;;
11113;SDS011;5610;52.154;9.198;2022-07-06T14:56:59;2.50;;;0.70;;
11113;SDS011;5610;52.154;9.198;2022-07-06T14:59:47;5.33;;;1.00;;
11113;SDS011;5610;52.154;9.198;2022-07-06T15:02:32;1.90;;;0.70;;
11113;SDS011;5610;52.154;9.198;2022-07-06T15:05:17;3.23;;;1.10;;
11113;SDS011;5610;52.154;9.198;2022-07-06T15:08:04;2.77;;;0.60;;
11113;SDS011;5610;52.154;9.198;2022-07-06T15:10:49;2.43;;;1.13;;
11113;SDS011;5610;52.154;9.198;2022-07-06T15:13:35;3.83;;;0.97;;
11113;SDS011;5610;52.154;9.198;2022-07-06T15:16:21;2.17;;;1.03;;
11113;SDS011;5610;52.154;9.198;2022-07-06T15:19:07;2.27;;;0.80;;
11113;SDS011;5610;52.154;9.198;2022-07-06T15:21:52;3.53;;;0.70;;
11113;SDS011;5610;52.154;9.198;2022-07-06T15:24:38;1.97;;;0.60;;
11113;SDS011;5610;52.154;9.198;2022-07-06T15:27:23;1.83;;;0.67;;
11113;SDS011;5610;52.154;9.198;2022-07-06T15:30:09;2.50;;;0.90;;
11113;SDS011;5610;52.154;9.198;2022-07-06T15:32:56;3.63;;;0.90;;
11113;SDS011;5610;52.154;9.198;2022-07-06T15:35:42;1.80;;;0.80;;
11113;SDS011;5610;52.154;9.198;2022-07-06T15:38:28;2.33;;;0.83;;
11113;SDS011;5610;52.154;9.198;2022-07-06T15:41:13;1.80;;;0.87;;
11113;SDS011;5610;52.154;9.198;2022-07-06T15:43:59;1.73;;;0.70;;
11113;SDS011;5610;52.154;9.198;2022-07-06T15:46:44;2.40;;;0.67;;
11113;SDS011;5610;52.154;9.198;2022-07-06T15:49:33;1.00;;;0.77;;
11113;SDS011;5610;52.154;9.198;2022-07-06T15:52:19;3.33;;;0.80;;
11113;SDS011;5610;52.154;9.198;2022-07-06T15:55:04;2.63;;;0.70;;
11113;SDS011;5610;52.154;9.198;2022-07-06T15:57:50;3.80;;;0.77;;
11113;SDS011;5610;52.154;9.198;2022-07-06T16:00:35;2.90;;;0.90;;
11113;SDS011;5610;52.154;9.198;2022-07-06T16:03:21;3.00;;;0.70;;
11113;SDS011;5610;52.154;9.198;2022-07-06T16:06:08;2.20;;;0.67;;
11113;SDS011;5610;52.154;9.198;2022-07-06T16:08:53;5.83;;;1.10;;
11113;SDS011;5610;52.154;9.198;2022-07-06T16:11:39;5.40;;;0.70;;
11113;SDS011;5610;52.154;9.198;2022-07-06T16:14:24;3.50;;;0.70;;
11113;SDS011;5610;52.154;9.198;2022-07-06T16:17:09;2.27;;;0.77;;
11113;SDS011;5610;52.154;9.198;2022-07-06T16:19:55;1.03;;;0.60;;
11113;SDS011;5610;52.154;9.198;2022-07-06T16:22:42;3.40;;;0.80;;
11113;SDS011;5610;52.154;9.198;2022-07-06T16:25:27;2.10;;;0.60;;
11113;SDS011;5610;52.154;9.198;2022-07-06T16:28:13;2.60;;;0.80;;
11113;SDS011;5610;52.154;9.198;2022-07-06T16:30:58;2.10;;;0.60;;
11113;SDS011;5610;52.154;9.198;2022-07-06T16:33:43;3.20;;;0.80;;
11113;SDS011;5610;52.154;9.198;2022-07-06T16:36:28;2.97;;;0.60;;
11113;SDS011;5610;52.154;9.198;2022-07-06T16:39:15;3.17;;;0.80;;
11113;SDS011;5610;52.154;9.198;2022-07-06T16:42:00;2.97;;;0.70;;
11113;SDS011;5610;52.154;9.198;2022-07-06T16:44:46;1.80;;;0.70;;
11113;SDS011;5610;52.154;9.198;2022-07-06T16:47:32;4.17;;;0.90;;
11113;SDS011;5610;52.154;9.198;2022-07-06T16:50:17;3.83;;;0.80;;
11113;SDS011;5610;52.154;9.198;2022-07-06T16:53:02;2.60;;;0.93;;
11113;SDS011;5610;52.154;9.198;2022-07-06T16:55:49;4.67;;;1.00;;
11113;SDS011;5610;52.154;9.198;2022-07-06T16:58:34;1.80;;;0.60;;
11113;SDS011;5610;52.154;9.198;2022-07-06T17:01:20;2.30;;;0.90;;